Time;durP1;ratioP1;P1;durP2;ratioP2;P2;SDS_P1;SDS_P2;PMS_P1;PMS_P2;Temp;Humidity;BMP_temperature;BMP_pressure;BME280_temperature;BME280_humidity;BME280_pressure;Samples;Min_cycle;Max_cycle;Signal;HPM_P1;HPM_P2
2023/06/22 00:02:13;;;;;;;;;;;16.60;99.90;;;;;;5011665;28;19925;-83
2023/06/22 00:04:39;;;;;;;;;;;16.40;99.90;;;;;;5027682;28;19925;-83
2023/06/22 00:07:05;;;;;;;;;;;16.20;99.90;;;;;;5047239;28;19925;-84
2023/06/22 00:09:30;;;;;;;;;;;16.10;99.90;;;;;;5032753;28;19932;-83
2023/06/22 00:11:56;;;;;;;;;;;16.00;99.90;;;;;;5033072;28;19972;-83
2023/06/22 00:14:22;;;;;;;;;;;16.10;99.90;;;;;;5014095;28;20284;-83
2023/06/22 00:16:48;;;;;;;;;;;16.10;99.90;;;;;;5013427;28;19941;-83
2023/06/22 00:19:14;;;;;;;;;;;16.10;99.90;;;;;;5031877;28;19933;-83
2023/06/22 00:21:40;;;;;;;;;;;16.20;99.90;;;;;;5016959;28;20127;-82
2023/06/22 00:24:06;;;;;;;;;;;16.20;99.90;;;;;;5032425;28;19925;-83
2023/06/22 00:26:32;;;;;;;;;;;16.30;99.90;;;;;;5032189;28;19932;-83
2023/06/22 00:28:57;;;;;;;;;;;16.10;99.90;;;;;;4998795;28;20301;-84
2023/06/22 00:31:23;;;;;;;;;;;16.00;99.90;;;;;;5014869;28;20460;-83
2023/06/22 00:33:50;;;;;;;;;;;15.90;99.90;;;;;;5014142;28;20000;-82
2023/06/22 00:36:17;;;;;;;;;;;15.80;99.90;;;;;;5007331;28;20277;-83
2023/06/22 00:38:43;;;;;;;;;;;15.60;99.90;;;;;;5019445;28;19933;-83
2023/06/22 00:41:09;;;;;;;;;;;15.50;99.90;;;;;;5029280;28;19932;-83
2023/06/22 00:43:34;;;;;;;;;;;15.40;99.90;;;;;;5011657;28;19929;-84
2023/06/22 00:46:00;;;;;;;;;;;15.30;99.90;;;;;;5024446;28;19933;-83
2023/06/22 00:48:26;;;;;;;;;;;15.20;99.90;;;;;;5030481;28;19937;-83
2023/06/22 00:50:53;;;;;;;;;;;15.30;99.90;;;;;;5012575;28;20441;-83
2023/06/22 00:53:19;;;;;;;;;;;15.30;99.90;;;;;;5027087;28;20320;-83
2023/06/22 00:55:46;;;;;;;;;;;15.30;99.90;;;;;;5032085;28;19951;-83
2023/06/22 00:58:12;;;;;;;;;;;15.20;99.90;;;;;;5031605;28;19931;-83
2023/06/22 01:00:38;;;;;;;;;;;15.20;99.90;;;;;;5008114;28;19926;-83
2023/06/22 01:03:08;;;;;;;;;;;15.00;99.90;;;;;;5030337;28;19972;-83
2023/06/22 01:05:34;;;;;;;;;;;15.00;99.90;;;;;;5008595;28;19932;-82
2023/06/22 01:08:03;;;;;;;;;;;14.90;99.90;;;;;;5012468;28;20012;-84
2023/06/22 01:10:51;;;;;;;;;;;14.80;99.90;;;;;;5029089;28;19947;-82
2023/06/22 01:13:32;;;;;;;;;;;14.70;99.90;;;;;;5009260;28;19925;-84
2023/06/22 01:16:07;;;;;;;;;;;14.70;99.90;;;;;;5030528;28;20327;-83
2023/06/22 01:18:36;;;;;;;;;;;14.80;99.90;;;;;;5030299;28;19929;-83
2023/06/22 01:21:02;;;;;;;;;;;14.90;99.90;;;;;;5031462;28;19928;-83
2023/06/22 01:23:28;;;;;;;;;;;15.00;99.90;;;;;;5031431;28;19925;-83
2023/06/22 01:26:18;;;;;;;;;;;15.10;99.90;;;;;;5031370;28;19925;-82
2023/06/22 01:28:48;;;;;;;;;;;15.00;99.90;;;;;;5025217;28;20012;-83
2023/06/22 01:31:16;;;;;;;;;;;15.00;99.90;;;;;;5030100;28;20016;-83
2023/06/22 01:33:43;;;;;;;;;;;14.90;99.90;;;;;;5010457;28;19941;-83
2023/06/22 01:36:09;;;;;;;;;;;14.80;99.90;;;;;;5031530;28;20261;-83
2023/06/22 01:38:36;;;;;;;;;;;14.60;99.90;;;;;;5014251;28;20368;-83
2023/06/22 01:41:02;;;;;;;;;;;14.60;99.90;;;;;;5030832;28;19960;-84
2023/06/22 01:43:28;;;;;;;;;;;14.70;99.90;;;;;;5030956;28;20007;-83
2023/06/22 01:45:54;;;;;;;;;;;14.70;99.90;;;;;;5030360;28;19979;-84
2023/06/22 01:48:21;;;;;;;;;;;14.90;99.90;;;;;;5008943;28;20364;-83
2023/06/22 01:50:47;;;;;;;;;;;14.90;99.90;;;;;;5030784;28;20357;-83
2023/06/22 01:53:12;;;;;;;;;;;14.90;99.90;;;;;;5014256;28;19933;-83
2023/06/22 01:55:38;;;;;;;;;;;14.80;99.90;;;;;;5031485;28;19925;-83
2023/06/22 01:58:03;;;;;;;;;;;14.80;99.90;;;;;;5009086;28;20673;-83
2023/06/22 02:00:31;;;;;;;;;;;14.70;99.90;;;;;;4990562;28;19933;-83
2023/06/22 02:03:02;;;;;;;;;;;14.70;99.90;;;;;;5025455;28;19943;-83
2023/06/22 02:05:35;;;;;;;;;;;14.60;99.90;;;;;;5030137;28;20262;-83
2023/06/22 02:08:27;;;;;;;;;;;14.60;99.90;;;;;;5014093;28;19935;-83
2023/06/22 02:10:54;;;;;;;;;;;14.40;99.90;;;;;;4986387;28;19929;-83
2023/06/22 02:13:20;;;;;;;;;;;14.50;99.90;;;;;;5030255;28;19940;-83
2023/06/22 02:15:47;;;;;;;;;;;14.50;99.90;;;;;;5030210;28;20012;-83
2023/06/22 02:18:12;;;;;;;;;;;14.50;99.90;;;;;;5012676;28;19971;-83
2023/06/22 02:20:38;;;;;;;;;;;14.60;99.90;;;;;;5030220;28;19961;-83
2023/06/22 02:23:05;;;;;;;;;;;14.60;99.90;;;;;;5030630;28;19925;-86
2023/06/22 02:25:31;;;;;;;;;;;14.50;99.90;;;;;;5031938;28;19933;-83
2023/06/22 02:27:56;;;;;;;;;;;14.50;99.90;;;;;;5034541;28;19926;-84
2023/06/22 02:30:22;;;;;;;;;;;14.30;99.90;;;;;;5033906;28;19940;-82
2023/06/22 02:32:48;;;;;;;;;;;14.20;99.90;;;;;;5012476;28;20347;-84
2023/06/22 02:35:13;;;;;;;;;;;14.10;99.90;;;;;;5033065;28;19925;-83
2023/06/22 02:37:41;;;;;;;;;;;13.90;99.90;;;;;;5016468;28;20664;-82
2023/06/22 02:40:08;;;;;;;;;;;13.80;99.90;;;;;;5017760;28;19925;-83
2023/06/22 02:42:37;;;;;;;;;;;13.70;99.90;;;;;;5016268;28;19957;-83
2023/06/22 02:45:03;;;;;;;;;;;13.50;99.90;;;;;;5033819;28;19925;-83
2023/06/22 02:47:29;;;;;;;;;;;13.30;99.90;;;;;;5031844;28;20043;-83
2023/06/22 02:49:55;;;;;;;;;;;13.30;99.90;;;;;;5017275;28;19936;-83
2023/06/22 02:52:20;;;;;;;;;;;13.30;99.90;;;;;;5017081;28;19947;-83
2023/06/22 02:54:46;;;;;;;;;;;13.30;99.90;;;;;;5033963;28;20377;-84
2023/06/22 02:57:13;;;;;;;;;;;13.40;99.90;;;;;;5028040;28;19937;-83
2023/06/22 02:59:40;;;;;;;;;;;13.50;99.90;;;;;;5015364;28;19932;-83
2023/06/22 03:02:06;;;;;;;;;;;13.50;99.90;;;;;;5016521;28;19929;-84
2023/06/22 03:04:32;;;;;;;;;;;13.60;99.90;;;;;;5028061;28;19925;-83
2023/06/22 03:07:00;;;;;;;;;;;13.60;99.90;;;;;;5033677;28;19925;-83
2023/06/22 03:09:27;;;;;;;;;;;13.70;99.90;;;;;;4998573;28;19929;-84
2023/06/22 03:11:53;;;;;;;;;;;13.70;99.90;;;;;;5033992;28;20024;-83
2023/06/22 03:14:19;;;;;;;;;;;13.70;99.90;;;;;;5033224;28;19925;-83
2023/06/22 03:16:45;;;;;;;;;;;13.70;99.90;;;;;;5033088;28;19979;-83
2023/06/22 03:19:10;;;;;;;;;;;13.70;99.90;;;;;;5012755;28;19926;-83
2023/06/22 03:21:38;;;;;;;;;;;13.80;99.90;;;;;;5031555;28;19925;-83
2023/06/22 03:24:04;;;;;;;;;;;13.90;99.90;;;;;;5032823;28;19940;-83
2023/06/22 03:26:30;;;;;;;;;;;14.00;99.90;;;;;;5033163;28;20016;-83
2023/06/22 03:28:56;;;;;;;;;;;14.10;99.90;;;;;;5033186;28;20475;-83
2023/06/22 03:31:22;;;;;;;;;;;14.10;99.90;;;;;;5012629;28;19925;-83
2023/06/22 03:33:48;;;;;;;;;;;14.20;99.90;;;;;;5032761;28;19932;-84
2023/06/22 03:36:18;;;;;;;;;;;14.30;99.90;;;;;;5015978;28;19936;-83
2023/06/22 03:38:45;;;;;;;;;;;14.40;99.90;;;;;;5032481;28;19925;-84
2023/06/22 03:41:11;;;;;;;;;;;14.50;99.90;;;;;;5004624;28;19932;-83
2023/06/22 03:43:36;;;;;;;;;;;14.50;99.90;;;;;;5024503;28;19926;-83
2023/06/22 03:46:02;;;;;;;;;;;14.60;99.90;;;;;;5014947;28;19936;-83
2023/06/22 03:48:27;;;;;;;;;;;14.60;99.90;;;;;;5013947;28;20380;-83
2023/06/22 03:50:53;;;;;;;;;;;14.70;99.90;;;;;;5032404;28;20015;-83
2023/06/22 03:53:19;;;;;;;;;;;14.80;99.90;;;;;;5015807;28;19925;-83
2023/06/22 03:55:49;;;;;;;;;;;14.80;99.90;;;;;;5032549;28;20351;-82
2023/06/22 03:58:14;;;;;;;;;;;14.80;99.90;;;;;;5033052;28;19925;-83
2023/06/22 04:00:40;;;;;;;;;;;14.80;99.90;;;;;;5032558;28;20012;-83
2023/06/22 04:03:07;;;;;;;;;;;14.70;99.90;;;;;;5032393;28;19932;-85
2023/06/22 04:05:33;;;;;;;;;;;14.70;99.90;;;;;;5014153;28;19941;-84
2023/06/22 04:07:58;;;;;;;;;;;14.60;99.90;;;;;;4996592;28;19925;-83
2023/06/22 04:10:24;;;;;;;;;;;14.50;99.90;;;;;;5031906;28;20317;-83
2023/06/22 04:12:49;;;;;;;;;;;14.30;99.90;;;;;;5032665;28;19980;-83
2023/06/22 04:15:15;;;;;;;;;;;14.20;99.90;;;;;;5032650;28;20412;-84
2023/06/22 04:17:41;;;;;;;;;;;14.00;99.90;;;;;;5020549;28;19968;-83
2023/06/22 04:20:07;;;;;;;;;;;14.00;99.90;;;;;;5032169;28;19931;-83
2023/06/22 04:22:32;;;;;;;;;;;13.90;99.90;;;;;;5012537;28;19949;-84
2023/06/22 04:24:58;;;;;;;;;;;13.90;99.90;;;;;;5028732;28;19925;-83
2023/06/22 04:27:23;;;;;;;;;;;13.90;99.90;;;;;;5015666;28;20309;-83
2023/06/22 04:29:49;;;;;;;;;;;13.90;99.90;;;;;;5033498;28;19969;-83
2023/06/22 04:32:15;;;;;;;;;;;14.00;99.90;;;;;;5014998;28;19936;-84
2023/06/22 04:34:41;;;;;;;;;;;14.10;99.90;;;;;;5031387;28;19929;-83
2023/06/22 04:37:06;;;;;;;;;;;14.20;99.90;;;;;;5012908;28;19926;-84
2023/06/22 04:39:32;;;;;;;;;;;14.40;99.90;;;;;;5023967;28;20385;-83
2023/06/22 04:42:00;;;;;;;;;;;14.60;99.90;;;;;;5031335;28;19925;-83
2023/06/22 04:44:26;;;;;;;;;;;14.80;99.90;;;;;;5031989;28;20424;-83
2023/06/22 04:47:08;;;;;;;;;;;14.90;99.90;;;;;;5015280;28;19925;-83
2023/06/22 04:49:35;;;;;;;;;;;15.10;99.90;;;;;;5030462;28;20023;-84
2023/06/22 04:52:02;;;;;;;;;;;15.40;99.90;;;;;;5031596;28;20335;-83
2023/06/22 04:54:28;;;;;;;;;;;15.60;99.90;;;;;;5030427;28;19925;-84
2023/06/22 04:56:56;;;;;;;;;;;15.80;99.90;;;;;;5031711;28;19932;-83
2023/06/22 04:59:22;;;;;;;;;;;16.00;99.90;;;;;;5012885;28;20023;-83
2023/06/22 05:01:48;;;;;;;;;;;16.10;99.90;;;;;;5029650;28;20021;-83
2023/06/22 05:04:13;;;;;;;;;;;16.20;99.90;;;;;;5030793;28;20365;-83
2023/06/22 05:06:39;;;;;;;;;;;16.40;99.90;;;;;;5031364;28;19931;-83
2023/06/22 05:09:06;;;;;;;;;;;16.70;99.90;;;;;;5031972;28;19925;-84
2023/06/22 05:11:31;;;;;;;;;;;16.80;99.90;;;;;;5031512;28;19979;-83
2023/06/22 05:13:57;;;;;;;;;;;16.90;99.90;;;;;;5013770;28;19960;-83
2023/06/22 05:16:26;;;;;;;;;;;17.00;99.90;;;;;;5027879;28;19988;-84
2023/06/22 05:18:54;;;;;;;;;;;17.00;99.90;;;;;;5012863;28;19935;-83
2023/06/22 05:21:24;;;;;;;;;;;17.10;99.90;;;;;;5031678;28;19929;-83
2023/06/22 05:23:50;;;;;;;;;;;17.20;99.90;;;;;;5014787;28;20064;-85
2023/06/22 05:26:16;;;;;;;;;;;17.30;99.90;;;;;;5030407;28;19929;-83
2023/06/22 05:28:41;;;;;;;;;;;17.30;99.90;;;;;;5030419;28;19970;-86
2023/06/22 05:31:07;;;;;;;;;;;17.40;99.90;;;;;;4993437;28;20008;-86
2023/06/22 05:33:33;;;;;;;;;;;17.40;99.90;;;;;;5012638;28;19987;-84
2023/06/22 05:35:58;;;;;;;;;;;17.50;99.90;;;;;;5012221;28;20447;-85
2023/06/22 05:38:24;;;;;;;;;;;17.60;99.90;;;;;;5010206;28;19984;-84
2023/06/22 05:40:49;;;;;;;;;;;17.60;99.90;;;;;;5011608;28;20059;-84
2023/06/22 05:43:15;;;;;;;;;;;17.70;99.90;;;;;;4994767;28;19973;-85
2023/06/22 05:45:41;;;;;;;;;;;17.80;99.90;;;;;;5007523;28;19929;-85
2023/06/22 05:48:06;;;;;;;;;;;17.90;99.90;;;;;;5009209;28;19929;-85
2023/06/22 05:50:32;;;;;;;;;;;17.90;99.90;;;;;;4998382;28;19931;-85
2023/06/22 05:52:57;;;;;;;;;;;18.00;99.90;;;;;;5013941;28;19925;-83
2023/06/22 05:55:23;;;;;;;;;;;18.10;99.90;;;;;;5031350;28;20024;-85
2023/06/22 05:57:49;;;;;;;;;;;18.20;99.90;;;;;;5031066;28;19933;-83
2023/06/22 06:00:14;;;;;;;;;;;18.30;99.90;;;;;;5027202;28;20294;-83
2023/06/22 06:02:43;;;;;;;;;;;18.30;99.90;;;;;;5029903;28;19969;-83
2023/06/22 06:05:14;;;;;;;;;;;18.40;99.90;;;;;;5014415;28;20008;-82
2023/06/22 06:07:41;;;;;;;;;;;18.50;99.90;;;;;;5011535;28;19980;-82
2023/06/22 06:10:06;;;;;;;;;;;18.60;99.90;;;;;;5030709;28;20012;-82
2023/06/22 06:12:32;;;;;;;;;;;18.70;99.90;;;;;;4998261;28;20007;-82
2023/06/22 06:14:58;;;;;;;;;;;18.70;99.90;;;;;;5031317;28;19971;-82
2023/06/22 06:17:23;;;;;;;;;;;18.80;99.90;;;;;;5030563;28;19926;-83
2023/06/22 06:19:49;;;;;;;;;;;18.80;99.90;;;;;;5030487;28;19941;-82
2023/06/22 06:22:14;;;;;;;;;;;18.90;99.90;;;;;;5030996;28;19964;-83
2023/06/22 06:24:40;;;;;;;;;;;19.00;99.90;;;;;;4996985;28;19925;-82
2023/06/22 06:27:06;;;;;;;;;;;19.10;99.90;;;;;;5011439;28;19932;-83
2023/06/22 06:29:31;;;;;;;;;;;19.20;99.90;;;;;;5022405;28;19997;-82
2023/06/22 06:31:57;;;;;;;;;;;19.20;99.90;;;;;;5029574;28;19925;-82
2023/06/22 06:34:23;;;;;;;;;;;19.30;99.90;;;;;;5010647;28;19925;-83
2023/06/22 06:36:48;;;;;;;;;;;19.30;99.90;;;;;;5012315;28;19932;-82
2023/06/22 06:39:14;;;;;;;;;;;19.40;99.90;;;;;;5029402;28;20403;-83
2023/06/22 06:41:39;;;;;;;;;;;19.40;99.90;;;;;;5012129;28;19937;-82
2023/06/22 06:44:05;;;;;;;;;;;19.50;99.90;;;;;;5031127;28;19933;-82
2023/06/22 06:46:31;;;;;;;;;;;19.60;99.90;;;;;;5030344;28;19925;-83
2023/06/22 06:48:56;;;;;;;;;;;19.60;99.90;;;;;;5029545;28;20046;-82
2023/06/22 06:51:22;;;;;;;;;;;19.70;99.90;;;;;;5031252;28;19925;-82
2023/06/22 06:53:47;;;;;;;;;;;19.90;99.90;;;;;;5030880;28;19983;-82
2023/06/22 06:56:13;;;;;;;;;;;19.90;99.90;;;;;;5031049;28;19932;-83
2023/06/22 06:58:41;;;;;;;;;;;20.00;99.90;;;;;;5031092;28;19947;-83
2023/06/22 07:01:07;;;;;;;;;;;20.00;99.90;;;;;;5025947;28;19925;-82
2023/06/22 07:03:33;;;;;;;;;;;20.10;99.90;;;;;;5030138;28;19932;-83
2023/06/22 07:05:59;;;;;;;;;;;20.10;99.90;;;;;;5030741;28;19937;-82
2023/06/22 07:08:24;;;;;;;;;;;20.20;99.90;;;;;;5029545;28;19960;-82
2023/06/22 07:10:51;;;;;;;;;;;20.20;99.90;;;;;;5030956;28;19928;-82
2023/06/22 07:13:17;;;;;;;;;;;20.30;99.90;;;;;;5034559;28;19925;-83
2023/06/22 07:15:42;;;;;;;;;;;20.50;99.90;;;;;;5014326;28;19932;-84
2023/06/22 07:18:08;;;;;;;;;;;20.50;99.90;;;;;;5031418;28;19941;-84
2023/06/22 07:20:34;;;;;;;;;;;20.60;99.90;;;;;;5033926;28;19929;-82
2023/06/22 07:23:00;;;;;;;;;;;20.50;99.90;;;;;;5034121;28;20008;-83
2023/06/22 07:25:25;;;;;;;;;;;20.50;99.90;;;;;;5033508;28;19932;-82
2023/06/22 07:27:57;;;;;;;;;;;20.50;99.90;;;;;;5034020;28;19932;-83
2023/06/22 07:30:23;;;;;;;;;;;20.60;99.90;;;;;;5014120;28;19929;-82
2023/06/22 07:32:48;;;;;;;;;;;20.60;99.90;;;;;;5028730;28;20312;-82
2023/06/22 07:35:16;;;;;;;;;;;20.60;99.90;;;;;;5013800;28;19925;-82
2023/06/22 07:37:41;;;;;;;;;;;20.60;99.90;;;;;;5033676;28;19925;-82
2023/06/22 07:40:07;;;;;;;;;;;20.60;99.90;;;;;;5034336;28;19967;-82
2023/06/22 07:42:33;;;;;;;;;;;20.70;99.90;;;;;;5033877;28;19925;-82
2023/06/22 07:44:59;;;;;;;;;;;20.80;99.90;;;;;;5014027;28;20304;-82
2023/06/22 07:47:25;;;;;;;;;;;20.80;99.90;;;;;;5039164;28;19979;-83
2023/06/22 07:49:50;;;;;;;;;;;20.80;99.90;;;;;;5016840;28;19932;-82
2023/06/22 07:52:16;;;;;;;;;;;20.80;99.90;;;;;;5033678;28;19925;-83
2023/06/22 07:54:41;;;;;;;;;;;20.80;99.90;;;;;;5032562;28;20385;-82
2023/06/22 07:57:07;;;;;;;;;;;20.90;99.90;;;;;;5033682;28;19925;-83
2023/06/22 07:59:32;;;;;;;;;;;20.90;99.90;;;;;;5033359;28;20016;-82
2023/06/22 08:01:58;;;;;;;;;;;20.90;99.90;;;;;;5005499;28;20008;-83
2023/06/22 08:04:24;;;;;;;;;;;21.00;99.90;;;;;;5032493;28;20333;-83
2023/06/22 08:06:49;;;;;;;;;;;21.00;99.90;;;;;;5034421;28;19935;-83
2023/06/22 08:09:15;;;;;;;;;;;21.10;99.90;;;;;;5033413;28;20022;-84
2023/06/22 08:11:40;;;;;;;;;;;21.20;99.90;;;;;;5029288;28;19926;-83
2023/06/22 08:14:06;;;;;;;;;;;21.30;99.90;;;;;;5033445;28;19925;-83
2023/06/22 08:16:31;;;;;;;;;;;21.30;99.90;;;;;;5034059;28;19937;-82
2023/06/22 08:18:57;;;;;;;;;;;21.30;99.90;;;;;;5032633;28;20026;-82
2023/06/22 08:21:23;;;;;;;;;;;21.40;99.90;;;;;;5013970;28;19925;-82
2023/06/22 08:23:48;;;;;;;;;;;21.40;99.90;;;;;;5033056;28;19925;-83
2023/06/22 08:26:15;;;;;;;;;;;21.60;99.90;;;;;;5033151;28;19955;-83
2023/06/22 08:28:40;;;;;;;;;;;21.70;99.90;;;;;;5032119;28;19929;-83
2023/06/22 08:31:06;;;;;;;;;;;21.80;99.90;;;;;;5026539;28;19971;-83
2023/06/22 08:33:32;;;;;;;;;;;21.80;99.90;;;;;;5031996;28;19999;-83
2023/06/22 08:35:58;;;;;;;;;;;21.80;99.90;;;;;;5033017;28;19980;-83
2023/06/22 08:38:24;;;;;;;;;;;21.90;99.90;;;;;;5032805;28;20273;-83
2023/06/22 08:40:49;;;;;;;;;;;22.00;99.90;;;;;;5026924;28;19929;-83
2023/06/22 08:43:15;;;;;;;;;;;22.10;99.90;;;;;;5031241;28;19995;-83
2023/06/22 08:45:41;;;;;;;;;;;22.10;99.90;;;;;;5032374;28;19968;-84
2023/06/22 08:48:06;;;;;;;;;;;22.10;99.90;;;;;;5009009;28;19929;-84
2023/06/22 08:50:32;;;;;;;;;;;22.10;99.90;;;;;;5032446;28;19925;-82
2023/06/22 08:52:58;;;;;;;;;;;22.20;99.90;;;;;;5032656;28;19929;-82
2023/06/22 08:55:23;;;;;;;;;;;22.30;99.90;;;;;;5032423;28;19968;-83
2023/06/22 08:57:49;;;;;;;;;;;22.40;99.90;;;;;;5026010;28;19925;-83
2023/06/22 09:00:16;;;;;;;;;;;22.40;99.90;;;;;;5031892;28;19932;-83
2023/06/22 09:02:42;;;;;;;;;;;22.50;99.90;;;;;;5014406;28;20018;-83
2023/06/22 09:05:08;;;;;;;;;;;22.50;99.90;;;;;;5031835;28;19932;-84
2023/06/22 09:07:34;;;;;;;;;;;22.50;99.90;;;;;;5031710;28;19929;-82
2023/06/22 09:10:00;;;;;;;;;;;22.50;99.90;;;;;;5032249;28;19928;-82
2023/06/22 09:12:27;;;;;;;;;;;22.50;99.90;;;;;;5031665;28;19925;-83
2023/06/22 09:14:53;;;;;;;;;;;22.60;99.90;;;;;;5032442;28;19932;-82
2023/06/22 09:17:18;;;;;;;;;;;22.60;99.90;;;;;;5031767;28;19933;-83
2023/06/22 09:19:44;;;;;;;;;;;22.70;99.90;;;;;;5031426;28;20304;-82
2023/06/22 09:22:10;;;;;;;;;;;22.80;99.90;;;;;;5012451;28;19930;-82
2023/06/22 09:24:35;;;;;;;;;;;22.90;99.90;;;;;;5030871;28;19925;-83
2023/06/22 09:27:01;;;;;;;;;;;22.90;99.90;;;;;;5031786;28;19940;-82
2023/06/22 09:29:26;;;;;;;;;;;23.00;99.90;;;;;;5031725;28;20424;-83
2023/06/22 09:31:55;;;;;;;;;;;23.10;99.90;;;;;;5030927;28;19936;-82
2023/06/22 09:34:21;;;;;;;;;;;23.20;99.90;;;;;;5011177;28;19960;-82
2023/06/22 09:36:47;;;;;;;;;;;23.30;99.90;;;;;;5016720;28;19988;-83
2023/06/22 09:39:12;;;;;;;;;;;23.40;99.90;;;;;;5031745;28;20043;-85
2023/06/22 09:41:38;;;;;;;;;;;23.50;99.90;;;;;;5031896;28;19925;-82
2023/06/22 09:44:03;;;;;;;;;;;23.40;99.90;;;;;;5030958;28;19932;-82
2023/06/22 09:46:29;;;;;;;;;;;23.40;99.90;;;;;;5031170;28;19975;-83
2023/06/22 09:48:55;;;;;;;;;;;23.40;99.90;;;;;;5030119;28;19972;-82
2023/06/22 09:51:21;;;;;;;;;;;23.40;99.90;;;;;;5031672;28;19932;-82
2023/06/22 09:53:47;;;;;;;;;;;23.30;99.90;;;;;;5031234;28;19940;-83
2023/06/22 09:56:14;;;;;;;;;;;23.30;99.90;;;;;;5031751;28;19925;-82
2023/06/22 09:58:44;;;;;;;;;;;23.40;99.90;;;;;;5030856;28;19929;-82
2023/06/22 10:01:14;;;;;;;;;;;23.50;99.90;;;;;;5030150;28;20373;-82
2023/06/22 10:03:41;;;;;;;;;;;23.60;99.90;;;;;;5030538;28;19980;-83
2023/06/22 10:06:07;;;;;;;;;;;23.80;99.90;;;;;;5031191;28;19948;-82
2023/06/22 10:08:32;;;;;;;;;;;23.90;99.90;;;;;;5014882;28;19928;-82
2023/06/22 10:10:58;;;;;;;;;;;24.00;99.90;;;;;;5031457;28;20669;-83
2023/06/22 10:13:23;;;;;;;;;;;24.20;99.90;;;;;;5031235;28;19926;-82
2023/06/22 10:15:51;;;;;;;;;;;24.30;99.90;;;;;;5029576;28;19937;-82
2023/06/22 10:18:17;;;;;;;;;;;24.40;99.90;;;;;;5030320;28;19925;-83
2023/06/22 10:20:43;;;;;;;;;;;24.40;99.90;;;;;;5031269;28;20270;-83
2023/06/22 10:23:09;;;;;;;;;;;24.40;99.90;;;;;;5011565;28;19925;-83
2023/06/22 10:25:34;;;;;;;;;;;24.30;99.90;;;;;;5015065;28;20542;-83
2023/06/22 10:28:00;;;;;;;;;;;24.30;99.90;;;;;;5014208;28;19929;-82
2023/06/22 10:30:26;;;;;;;;;;;24.30;99.90;;;;;;5030802;28;20023;-82
2023/06/22 10:32:51;;;;;;;;;;;24.40;99.90;;;;;;5010080;28;19932;-83
2023/06/22 10:35:17;;;;;;;;;;;24.50;99.90;;;;;;5008395;28;19930;-83
2023/06/22 10:37:46;;;;;;;;;;;24.50;99.90;;;;;;5028388;28;19955;-83
2023/06/22 10:40:15;;;;;;;;;;;24.70;99.90;;;;;;5031386;28;19925;-82
2023/06/22 10:42:41;;;;;;;;;;;24.80;99.90;;;;;;5031089;28;20062;-84
2023/06/22 10:45:07;;;;;;;;;;;24.90;99.90;;;;;;5015218;28;19925;-82
2023/06/22 10:47:33;;;;;;;;;;;24.80;99.90;;;;;;5033227;28;19925;-83
2023/06/22 10:49:59;;;;;;;;;;;24.90;99.90;;;;;;5034630;28;20498;-83
2023/06/22 10:52:25;;;;;;;;;;;24.90;99.90;;;;;;5034711;28;19971;-85
2023/06/22 10:54:50;;;;;;;;;;;25.00;99.90;;;;;;5034890;28;19967;-83
2023/06/22 10:57:16;;;;;;;;;;;24.90;99.90;;;;;;5035062;28;19925;-83
2023/06/22 10:59:41;;;;;;;;;;;24.90;99.90;;;;;;5017178;28;19933;-83
2023/06/22 11:02:07;;;;;;;;;;;25.00;99.90;;;;;;5033679;28;20008;-83
2023/06/22 11:04:33;;;;;;;;;;;25.10;99.90;;;;;;5033458;28;20334;-83
2023/06/22 11:06:58;;;;;;;;;;;25.10;99.90;;;;;;5014060;28;19932;-83
2023/06/22 11:09:24;;;;;;;;;;;25.40;99.90;;;;;;5030161;28;19929;-82
2023/06/22 11:11:53;;;;;;;;;;;25.50;99.90;;;;;;5034382;28;19929;-83
2023/06/22 11:14:19;;;;;;;;;;;25.80;99.90;;;;;;5034310;28;20356;-83
2023/06/22 11:16:46;;;;;;;;;;;26.00;99.90;;;;;;5031275;28;20326;-83
2023/06/22 11:19:11;;;;;;;;;;;25.90;99.90;;;;;;5033393;28;20387;-84
2023/06/22 11:21:37;;;;;;;;;;;26.00;99.90;;;;;;5016216;28;19929;-83
2023/06/22 11:24:03;;;;;;;;;;;25.90;99.90;;;;;;5034167;28;19936;-83
2023/06/22 11:26:28;;;;;;;;;;;25.80;99.90;;;;;;5033744;28;19925;-83
2023/06/22 11:28:54;;;;;;;;;;;25.80;99.90;;;;;;5007769;28;19925;-84
2023/06/22 11:31:19;;;;;;;;;;;25.80;99.90;;;;;;5025929;28;19937;-82
2023/06/22 11:33:48;;;;;;;;;;;25.80;99.90;;;;;;5025814;28;19925;-83
2023/06/22 11:36:14;;;;;;;;;;;25.80;99.90;;;;;;5034015;28;19929;-83
2023/06/22 11:38:40;;;;;;;;;;;25.80;99.70;;;;;;5014161;28;20341;-83
2023/06/22 11:41:06;;;;;;;;;;;25.70;99.90;;;;;;5030408;28;19925;-84
2023/06/22 11:43:31;;;;;;;;;;;25.70;99.90;;;;;;5033417;28;19932;-83
2023/06/22 11:45:57;;;;;;;;;;;25.70;99.90;;;;;;5014062;28;20362;-83
2023/06/22 11:48:26;;;;;;;;;;;25.60;99.90;;;;;;5027949;28;19925;-82
2023/06/22 11:50:52;;;;;;;;;;;25.80;99.90;;;;;;5029280;28;20008;-82
2023/06/22 11:53:17;;;;;;;;;;;25.80;99.60;;;;;;5027741;28;20012;-83
2023/06/22 11:55:43;;;;;;;;;;;25.80;99.10;;;;;;5015939;28;19933;-82
2023/06/22 11:58:09;;;;;;;;;;;25.70;99.70;;;;;;5031019;28;19937;-83
2023/06/22 12:00:35;;;;;;;;;;;25.80;99.90;;;;;;5030722;28;20306;-82
2023/06/22 12:03:00;;;;;;;;;;;25.80;99.70;;;;;;5007815;28;20008;-83
2023/06/22 12:05:26;;;;;;;;;;;25.80;99.10;;;;;;5026200;28;19925;-82
2023/06/22 12:07:55;;;;;;;;;;;25.80;99.30;;;;;;5034409;28;19925;-83
2023/06/22 12:10:21;;;;;;;;;;;25.80;99.00;;;;;;5033496;28;20368;-83
2023/06/22 12:12:47;;;;;;;;;;;25.70;99.80;;;;;;5016944;28;19964;-82
2023/06/22 12:15:12;;;;;;;;;;;25.70;99.90;;;;;;5031955;28;19971;-83
2023/06/22 12:17:38;;;;;;;;;;;25.80;99.90;;;;;;5003425;28;20358;-83
2023/06/22 12:20:05;;;;;;;;;;;25.80;99.90;;;;;;5020223;28;20747;-83
2023/06/22 12:22:31;;;;;;;;;;;25.80;99.90;;;;;;5021492;28;19948;-83
2023/06/22 12:24:57;;;;;;;;;;;25.80;99.70;;;;;;5019332;28;20005;-84
2023/06/22 12:27:22;;;;;;;;;;;25.70;99.90;;;;;;5024903;28;20015;-85
2023/06/22 12:29:48;;;;;;;;;;;25.70;99.90;;;;;;5027464;28;20353;-82
2023/06/22 12:32:14;;;;;;;;;;;25.60;99.90;;;;;;5026422;28;20032;-83
2023/06/22 12:34:41;;;;;;;;;;;25.50;99.90;;;;;;5023102;28;19965;-85
2023/06/22 12:37:07;;;;;;;;;;;25.50;99.90;;;;;;5028090;28;19976;-85
2023/06/22 12:39:32;;;;;;;;;;;25.50;99.90;;;;;;5031104;28;19929;-85
2023/06/22 12:41:58;;;;;;;;;;;25.50;99.90;;;;;;5013914;28;19972;-85
2023/06/22 12:44:23;;;;;;;;;;;25.50;99.90;;;;;;5030631;28;19925;-85
2023/06/22 12:46:49;;;;;;;;;;;25.50;99.90;;;;;;5012563;28;19930;-84
2023/06/22 12:49:15;;;;;;;;;;;25.60;99.90;;;;;;5008586;28;20329;-84
2023/06/22 12:51:42;;;;;;;;;;;25.50;99.90;;;;;;5029746;28;20062;-84
2023/06/22 12:54:07;;;;;;;;;;;25.50;99.90;;;;;;5031008;28;19960;-84
2023/06/22 12:56:33;;;;;;;;;;;25.50;99.90;;;;;;5031174;28;20579;-84
2023/06/22 12:59:01;;;;;;;;;;;25.50;99.90;;;;;;5026528;28;19929;-84
2023/06/22 13:01:27;;;;;;;;;;;25.60;99.90;;;;;;5023862;28;19932;-84
2023/06/22 13:03:53;;;;;;;;;;;25.60;99.90;;;;;;5022820;28;19925;-87
2023/06/22 13:06:18;;;;;;;;;;;25.70;99.90;;;;;;5030604;28;19975;-85
2023/06/22 13:08:44;;;;;;;;;;;25.60;99.90;;;;;;5000795;28;19999;-85
2023/06/22 13:11:10;;;;;;;;;;;25.60;99.90;;;;;;5024075;28;19947;-85
2023/06/22 13:13:35;;;;;;;;;;;25.70;99.90;;;;;;5030158;28;19925;-84
2023/06/22 13:16:01;;;;;;;;;;;25.70;99.90;;;;;;5030311;28;20366;-85
2023/06/22 13:18:26;;;;;;;;;;;25.70;99.90;;;;;;5025043;28;19929;-85
2023/06/22 13:20:54;;;;;;;;;;;25.70;99.90;;;;;;5010872;28;19925;-86
2023/06/22 13:23:23;;;;;;;;;;;25.60;99.90;;;;;;5010614;28;19930;-84
2023/06/22 13:25:48;;;;;;;;;;;25.50;99.90;;;;;;5009876;28;20301;-85
2023/06/22 13:28:15;;;;;;;;;;;25.50;99.90;;;;;;5026220;28;19925;-84
2023/06/22 13:30:41;;;;;;;;;;;25.30;99.90;;;;;;5025734;28;20375;-85
2023/06/22 13:33:07;;;;;;;;;;;25.30;99.90;;;;;;5012705;28;19924;-85
2023/06/22 13:35:32;;;;;;;;;;;25.40;99.90;;;;;;5013378;28;19929;-84
2023/06/22 13:37:58;;;;;;;;;;;25.20;99.90;;;;;;5029605;28;19925;-84
2023/06/22 13:40:24;;;;;;;;;;;25.20;99.80;;;;;;5014268;28;20370;-84
2023/06/22 13:42:49;;;;;;;;;;;25.10;99.70;;;;;;5025886;28;19929;-85
2023/06/22 13:45:17;;;;;;;;;;;24.90;99.90;;;;;;4994271;28;19937;-86
2023/06/22 13:47:42;;;;;;;;;;;24.90;99.90;;;;;;5009677;28;20396;-85
2023/06/22 13:50:08;;;;;;;;;;;24.90;99.90;;;;;;5028191;28;20115;-84
2023/06/22 13:52:34;;;;;;;;;;;24.80;99.90;;;;;;5011660;28;20007;-84
2023/06/22 13:54:59;;;;;;;;;;;24.80;99.90;;;;;;5027348;28;19933;-85
2023/06/22 13:57:25;;;;;;;;;;;24.70;99.90;;;;;;5029030;28;19929;-85
2023/06/22 13:59:51;;;;;;;;;;;24.70;99.90;;;;;;5026460;28;19955;-85
2023/06/22 14:02:16;;;;;;;;;;;24.70;99.90;;;;;;5024600;28;19925;-84
2023/06/22 14:04:42;;;;;;;;;;;24.70;99.90;;;;;;5025591;28;19936;-85
2023/06/22 14:07:08;;;;;;;;;;;24.70;99.90;;;;;;5009603;28;19984;-86
2023/06/22 14:09:33;;;;;;;;;;;24.60;99.90;;;;;;5029665;28;20412;-85
2023/06/22 14:12:02;;;;;;;;;;;24.50;99.90;;;;;;5029635;28;19925;-85